Time;durP1;ratioP1;P1;durP2;ratioP2;P2;SDS_P1;SDS_P2;PMS_P1;PMS_P2;Temp;Humidity;BMP_temperature;BMP_pressure;BME280_temperature;BME280_humidity;BME280_pressure;Samples;Min_cycle;Max_cycle;Signal;HPM_P1;HPM_P2
2023/10/08 00:01:55;;;;;;;0.80;0.40;;;21.50;62.60;;;;;;5149713;27;20026;-52
2023/10/08 00:04:22;;;;;;;0.82;0.70;;;21.50;62.60;;;;;;5156492;27;20035;-51
2023/10/08 00:06:49;;;;;;;0.80;0.70;;;21.50;62.80;;;;;;5144692;27;20031;-51
2023/10/08 00:09:15;;;;;;;0.73;0.60;;;21.50;62.70;;;;;;5145200;27;20043;-56
2023/10/08 00:11:41;;;;;;;0.80;0.50;;;21.50;62.70;;;;;;5147048;27;20039;-57
2023/10/08 00:14:17;;;;;;;0.83;0.70;;;21.50;62.70;;;;;;5150413;27;20049;-54
2023/10/08 00:16:43;;;;;;;1.15;0.60;;;21.50;62.80;;;;;;5142669;27;20042;-54
2023/10/08 00:19:13;;;;;;;1.63;1.02;;;21.50;62.70;;;;;;5143998;27;20035;-54
2023/10/08 00:21:40;;;;;;;1.10;0.85;;;21.40;62.60;;;;;;5146000;27;20052;-54
2023/10/08 00:24:06;;;;;;;0.82;0.52;;;21.50;62.60;;;;;;5147484;27;20029;-54
2023/10/08 00:26:35;;;;;;;1.77;0.95;;;21.40;62.60;;;;;;5133948;27;20043;-54
2023/10/08 00:29:17;;;;;;;1.10;0.90;;;21.40;62.70;;;;;;5149286;27;20040;-55
2023/10/08 00:31:45;;;;;;;1.98;0.82;;;21.40;62.80;;;;;;5131575;27;20023;-54
2023/10/08 00:34:13;;;;;;;1.00;0.90;;;21.40;62.80;;;;;;5152537;27;20943;-57
2023/10/08 00:36:46;;;;;;;1.10;0.95;;;21.30;62.70;;;;;;5153631;27;20031;-58
2023/10/08 00:39:22;;;;;;;1.15;0.93;;;21.30;63.50;;;;;;5164029;27;20502;-55
2023/10/08 00:41:49;;;;;;;1.13;0.85;;;21.30;62.80;;;;;;5143062;27;20026;-54
2023/10/08 00:44:21;;;;;;;1.35;1.10;;;21.30;62.70;;;;;;5144768;27;20034;-57
2023/10/08 00:46:48;;;;;;;1.13;1.00;;;21.30;62.70;;;;;;5147930;27;20026;-55
2023/10/08 00:54:36;;;;;;;2.03;0.98;;;21.20;62.70;;;;;;5127884;27;20058;-55
2023/10/08 00:57:06;;;;;;;1.20;1.00;;;21.20;62.80;;;;;;5121398;28;20052;-57
2023/10/08 00:59:44;;;;;;;1.65;1.17;;;21.20;62.80;;;;;;5117635;27;20027;-56
2023/10/08 01:02:14;;;;;;;1.50;1.02;;;21.20;62.90;;;;;;5144263;27;20030;-57
2023/10/08 01:04:43;;;;;;;1.10;0.98;;;21.20;62.90;;;;;;5151761;27;20046;-54
2023/10/08 01:07:15;;;;;;;1.67;1.10;;;21.20;63.00;;;;;;5134117;27;20087;-57
2023/10/08 01:09:50;;;;;;;1.35;1.15;;;21.10;63.00;;;;;;5135819;27;20046;-56
2023/10/08 01:14:55;;;;;;;1.88;1.25;;;21.10;63.00;;;;;;5135230;27;20087;-57
2023/10/08 01:17:24;;;;;;;1.60;1.13;;;21.10;63.00;;;;;;5147149;27;20027;-53
2023/10/08 01:19:55;;;;;;;1.80;1.20;;;21.10;63.00;;;;;;5136419;27;20118;-57
2023/10/08 01:22:25;;;;;;;1.48;1.10;;;21.10;63.00;;;;;;5117662;28;20200;-55
2023/10/08 01:24:51;;;;;;;1.70;1.10;;;21.10;63.10;;;;;;5131207;27;20026;-55
2023/10/08 01:27:24;;;;;;;2.33;1.05;;;21.00;63.00;;;;;;5154210;27;20029;-55
2023/10/08 01:29:54;;;;;;;2.20;1.20;;;21.00;63.00;;;;;;5115843;28;20063;-54
2023/10/08 01:32:21;;;;;;;1.20;1.10;;;21.00;63.20;;;;;;5136370;27;20031;-55
2023/10/08 01:34:48;;;;;;;1.50;0.90;;;21.00;63.20;;;;;;5133005;27;20129;-55
2023/10/08 01:37:17;;;;;;;1.53;1.27;;;21.00;63.30;;;;;;5106400;28;20036;-57
2023/10/08 01:39:49;;;;;;;1.77;1.25;;;21.00;63.10;;;;;;5141941;27;20356;-56
2023/10/08 01:42:17;;;;;;;2.10;1.20;;;20.90;63.10;;;;;;5118419;28;20120;-57
2023/10/08 01:44:48;;;;;;;1.63;1.10;;;20.90;63.20;;;;;;5144631;27;20030;-56
2023/10/08 01:47:15;;;;;;;2.10;1.40;;;20.90;63.10;;;;;;5143100;27;20035;-56
2023/10/08 01:49:46;;;;;;;1.58;1.27;;;20.90;63.10;;;;;;5141954;28;20047;-53
2023/10/08 01:52:17;;;;;;;1.88;1.40;;;20.90;63.20;;;;;;5148412;27;20019;-54
2023/10/08 01:54:44;;;;;;;1.60;1.13;;;20.90;63.20;;;;;;5144576;27;20031;-54
2023/10/08 01:57:12;;;;;;;1.70;1.08;;;20.90;63.20;;;;;;5140627;27;20030;-57
2023/10/08 01:59:38;;;;;;;1.73;1.15;;;20.80;63.30;;;;;;5144849;27;20844;-57
2023/10/08 02:02:06;;;;;;;1.27;1.00;;;20.80;63.30;;;;;;5144740;27;20019;-55
2023/10/08 02:04:35;;;;;;;1.63;1.10;;;20.80;63.30;;;;;;5150611;27;20135;-57
2023/10/08 02:07:03;;;;;;;1.45;1.15;;;20.80;63.30;;;;;;5147339;27;20034;-55
2023/10/08 02:09:30;;;;;;;1.10;1.00;;;20.80;63.40;;;;;;5138133;27;20039;-53
2023/10/08 02:11:56;;;;;;;1.23;1.10;;;20.80;63.40;;;;;;5136142;28;20020;-55
2023/10/08 02:14:23;;;;;;;1.70;1.20;;;20.70;63.40;;;;;;5134857;27;20031;-56
2023/10/08 02:17:01;;;;;;;1.08;0.95;;;20.70;63.30;;;;;;5143129;27;20020;-55
2023/10/08 02:19:28;;;;;;;1.38;0.95;;;20.70;63.40;;;;;;5135882;27;20097;-54
2023/10/08 02:21:55;;;;;;;1.45;1.15;;;20.70;63.40;;;;;;5141600;27;20086;-57
2023/10/08 02:24:23;;;;;;;1.83;1.10;;;20.70;63.50;;;;;;5157955;27;20034;-54
2023/10/08 02:26:51;;;;;;;1.42;1.20;;;20.70;63.40;;;;;;5147311;27;20068;-55
2023/10/08 02:29:17;;;;;;;1.63;1.20;;;20.60;63.50;;;;;;5137821;27;20034;-55
2023/10/08 02:31:44;;;;;;;1.13;0.82;;;20.60;63.50;;;;;;5147526;27;20026;-55
2023/10/08 02:34:12;;;;;;;1.88;0.98;;;20.60;63.50;;;;;;5147023;27;20052;-55
2023/10/08 02:36:40;;;;;;;1.55;1.08;;;20.60;63.60;;;;;;5144348;27;20051;-53
2023/10/08 02:39:29;;;;;;;1.65;1.00;;;20.60;63.60;;;;;;5143753;27;20126;-56
2023/10/08 02:41:56;;;;;;;1.40;0.95;;;20.60;63.70;;;;;;5139735;27;20047;-55
2023/10/08 02:44:23;;;;;;;1.85;1.25;;;20.60;63.60;;;;;;5153836;27;20027;-56
2023/10/08 02:46:49;;;;;;;1.00;0.90;;;20.60;63.70;;;;;;5153465;27;20019;-55
2023/10/08 02:49:25;;;;;;;1.40;0.90;;;20.50;63.60;;;;;;5146975;27;20047;-56
2023/10/08 02:51:55;;;;;;;1.02;0.73;;;20.50;63.60;;;;;;5139464;27;20083;-54
2023/10/08 02:54:31;;;;;;;1.17;0.70;;;20.50;63.60;;;;;;5145734;27;20054;-56
2023/10/08 02:57:00;;;;;;;1.33;1.00;;;20.50;63.80;;;;;;5143807;27;20076;-56
2023/10/08 02:59:38;;;;;;;0.95;0.75;;;20.50;63.70;;;;;;5148847;27;20031;-57
2023/10/08 03:02:18;;;;;;;1.45;0.82;;;20.50;63.80;;;;;;5139675;27;20471;-56
2023/10/08 03:04:45;;;;;;;1.58;0.85;;;20.40;63.70;;;;;;5147772;27;20034;-57
2023/10/08 03:07:21;;;;;;;1.73;1.15;;;20.40;64.60;;;;;;5153825;27;20038;-54
2023/10/08 03:09:51;;;;;;;1.13;0.70;;;20.40;63.80;;;;;;5156045;27;20094;-55
2023/10/08 03:12:18;;;;;;;1.27;0.98;;;20.40;63.80;;;;;;5151803;27;20122;-53
2023/10/08 03:15:30;;;;;;;1.67;0.98;;;20.40;63.90;;;;;;5148313;27;20029;-55
2023/10/08 03:17:37;;;;;;;0.90;0.80;;;20.40;63.90;;;;;;5131358;27;20714;-55
2023/10/08 03:22:48;;;;;;;0.93;0.70;;;20.30;63.90;;;;;;5143378;27;20470;-53
2023/10/08 03:25:17;;;;;;;1.02;0.70;;;20.30;64.00;;;;;;5121791;27;20066;-51
2023/10/08 03:27:44;;;;;;;1.50;0.88;;;20.30;64.00;;;;;;5127051;27;20026;-54
2023/10/08 03:30:16;;;;;;;1.55;1.00;;;20.30;64.10;;;;;;5153222;27;20513;-50
2023/10/08 03:32:45;;;;;;;1.63;1.00;;;20.30;64.00;;;;;;5146807;27;20048;-51
2023/10/08 03:35:12;;;;;;;1.08;0.88;;;20.30;64.10;;;;;;5151531;27;20088;-53
2023/10/08 03:37:50;;;;;;;1.13;1.00;;;20.20;64.00;;;;;;5153061;27;20070;-55
2023/10/08 03:42:56;;;;;;;1.40;0.68;;;20.20;64.20;;;;;;5143039;27;20603;-51
2023/10/08 03:48:11;;;;;;;0.90;0.82;;;20.20;64.20;;;;;;5143818;27;20057;-52
2023/10/08 03:50:41;;;;;;;1.60;0.80;;;20.20;64.20;;;;;;5146236;27;20525;-51
2023/10/08 03:53:17;;;;;;;0.90;0.70;;;20.20;64.30;;;;;;5149624;27;20092;-53
2023/10/08 03:55:43;;;;;;;1.52;0.88;;;20.10;64.30;;;;;;5153778;27;20369;-54
2023/10/08 03:58:29;;;;;;;0.90;0.70;;;20.10;64.30;;;;;;5146175;27;20062;-55
2023/10/08 04:01:18;;;;;;;1.42;0.90;;;20.10;64.40;;;;;;5143601;27;20061;-50
2023/10/08 04:04:04;;;;;;;;;;;20.10;64.50;;;;;;5147613;27;20552;-53
2023/10/08 04:11:51;;;;;;;1.35;0.93;;;20.10;64.50;;;;;;5144426;27;20468;-54
2023/10/08 04:14:18;;;;;;;1.00;0.70;;;20.00;64.60;;;;;;5151067;27;20055;-54
2023/10/08 04:16:45;;;;;;;0.70;0.68;;;20.00;64.60;;;;;;5161071;27;20087;-56
2023/10/08 04:19:11;;;;;;;0.73;0.70;;;20.00;64.60;;;;;;5120618;27;20037;-54
2023/10/08 04:21:40;;;;;;;1.10;0.83;;;20.00;64.70;;;;;;5140874;27;20475;-53
2023/10/08 04:24:28;;;;;;;0.70;0.60;;;19.90;64.60;;;;;;5149337;27;20035;-54
2023/10/08 04:26:57;;;;;;;0.93;0.60;;;19.90;64.60;;;;;;5133686;27;20015;-54
2023/10/08 04:29:25;;;;;;;0.70;0.70;;;19.90;64.70;;;;;;5141396;27;20061;-54
2023/10/08 04:32:01;;;;;;;0.90;0.80;;;19.90;65.50;;;;;;5132445;27;20035;-55
2023/10/08 04:34:28;;;;;;;0.93;0.73;;;19.90;64.80;;;;;;5152347;27;20076;-56
2023/10/08 04:36:56;;;;;;;;;;;19.90;64.70;;;;;;5138232;27;20049;-55
2023/10/08 04:39:23;;;;;;;1.02;0.70;;;19.80;64.70;;;;;;5153324;27;19958;-54
2023/10/08 04:41:54;;;;;;;0.80;0.73;;;19.90;64.90;;;;;;5147126;27;20038;-56
2023/10/08 04:44:21;;;;;;;0.80;0.52;;;19.80;64.90;;;;;;5141154;27;20031;-54
2023/10/08 04:46:51;;;;;;;2.60;0.85;;;19.80;64.90;;;;;;5155724;27;20027;-54
2023/10/08 04:51:52;;;;;;;1.30;0.90;;;19.80;64.90;;;;;;5162679;27;20467;-55
2023/10/08 04:54:18;;;;;;;0.60;0.60;;;19.80;64.90;;;;;;5148059;27;20052;-55
2023/10/08 04:56:44;;;;;;;0.90;0.70;;;19.80;65.00;;;;;;5145988;27;20046;-56
2023/10/08 04:59:11;;;;;;;0.65;0.50;;;19.80;65.00;;;;;;5127391;27;20028;-54
2023/10/08 05:01:47;;;;;;;0.93;0.80;;;19.80;65.20;;;;;;5134088;27;20028;-54
2023/10/08 05:04:26;;;;;;;1.13;0.55;;;19.70;65.10;;;;;;5132721;27;20027;-55
2023/10/08 05:07:17;;;;;;;1.50;0.60;;;19.70;65.10;;;;;;5128395;27;20023;-55
2023/10/08 05:09:51;;;;;;;0.70;0.60;;;19.70;65.20;;;;;;5133527;27;20061;-54
2023/10/08 05:12:34;;;;;;;0.98;0.70;;;19.70;65.20;;;;;;5125402;27;20032;-56
2023/10/08 05:23:20;;;;;;;0.68;0.55;;;19.60;65.30;;;;;;5134412;27;20049;-54
2023/10/08 05:39:42;;;;;;;0.95;0.73;;;19.50;65.40;;;;;;5118787;28;20032;-54
2023/10/08 05:42:31;;;;;;;0.52;0.52;;;19.50;65.40;;;;;;5107465;27;20059;-55
2023/10/08 05:55:27;;;;;;;0.85;0.50;;;19.40;65.60;;;;;;5121827;28;20886;-52
2023/10/08 05:58:45;;;;;;;0.60;0.60;;;19.40;65.60;;;;;;5105620;28;20032;-54
2023/10/08 06:01:25;;;;;;;0.82;0.50;;;19.40;65.70;;;;;;5093814;27;20587;-55
2023/10/08 06:04:20;;;;;;;0.82;0.50;;;19.40;65.70;;;;;;5129088;27;20082;-54
2023/10/08 06:06:57;;;;;;;0.70;0.50;;;19.40;65.70;;;;;;5127049;27;20035;-53
2023/10/08 06:09:35;;;;;;;0.60;0.50;;;19.30;65.70;;;;;;5130194;27;20137;-55
2023/10/08 06:12:12;;;;;;;0.80;0.50;;;19.30;65.80;;;;;;5133098;27;20042;-55
2023/10/08 06:15:07;;;;;;;0.40;0.40;;;19.30;65.80;;;;;;5137129;27;20031;-54
2023/10/08 06:17:44;;;;;;;0.85;0.50;;;19.30;65.80;;;;;;5123059;27;20031;-54
2023/10/08 06:20:16;;;;;;;0.40;0.40;;;19.30;65.90;;;;;;5109915;28;20028;-54
2023/10/08 06:22:43;;;;;;;1.17;0.40;;;19.30;65.90;;;;;;5114111;27;20099;-53
2023/10/08 06:25:16;;;;;;;0.73;0.55;;;19.20;65.90;;;;;;5111003;28;20038;-55
2023/10/08 06:27:44;;;;;;;0.50;0.40;;;19.20;65.90;;;;;;5113069;27;20040;-54
2023/10/08 06:30:16;;;;;;;2.00;0.60;;;19.20;66.00;;;;;;5111345;27;20069;-54
2023/10/08 06:32:45;;;;;;;0.68;0.60;;;19.20;66.00;;;;;;5112022;28;20124;-56
2023/10/08 06:35:17;;;;;;;0.60;0.52;;;19.20;66.00;;;;;;5107942;27;20039;-52
2023/10/08 06:37:49;;;;;;;0.50;0.50;;;19.10;65.90;;;;;;5122267;27;20039;-54
2023/10/08 06:43:11;;;;;;;0.77;0.50;;;19.10;66.00;;;;;;5131065;27;20043;-56
2023/10/08 06:45:39;;;;;;;0.33;0.33;;;19.10;66.00;;;;;;5137360;27;20031;-55
2023/10/08 06:48:06;;;;;;;0.60;0.52;;;19.10;66.10;;;;;;5129810;27;20287;-52
2023/10/08 06:50:36;;;;;;;0.60;0.60;;;19.00;66.10;;;;;;5145729;27;20723;-52
2023/10/08 06:53:06;;;;;;;0.50;0.40;;;19.10;66.20;;;;;;5139762;27;20034;-56
2023/10/08 06:55:35;;;;;;;0.50;0.50;;;19.10;66.20;;;;;;5138868;27;20024;-57
2023/10/08 06:58:05;;;;;;;0.75;0.50;;;19.00;66.20;;;;;;5152764;27;20049;-56
2023/10/08 07:00:48;;;;;;;0.68;0.43;;;19.00;66.20;;;;;;5148213;27;20089;-55
2023/10/08 07:03:15;;;;;;;0.60;0.57;;;19.00;66.20;;;;;;5136620;27;20149;-55
2023/10/08 07:05:59;;;;;;;1.05;0.60;;;19.00;66.30;;;;;;5145218;27;20065;-54
2023/10/08 07:08:27;;;;;;;1.27;0.40;;;19.00;66.30;;;;;;5128293;27;20027;-54
2023/10/08 07:10:53;;;;;;;0.85;0.40;;;19.00;66.40;;;;;;5150745;27;20042;-53
2023/10/08 07:13:24;;;;;;;0.45;0.38;;;18.90;66.30;;;;;;5150221;27;20023;-57
2023/10/08 07:15:51;;;;;;;0.63;0.40;;;18.90;66.30;;;;;;5153613;27;20031;-55
2023/10/08 07:18:27;;;;;;;0.70;0.40;;;18.90;66.40;;;;;;5152959;27;20044;-55
2023/10/08 07:20:54;;;;;;;0.90;0.40;;;18.90;66.50;;;;;;5150855;27;20117;-56
2023/10/08 07:23:25;;;;;;;;;;;18.90;66.40;;;;;;5158479;27;20024;-56
2023/10/08 07:26:17;;;;;;;0.50;0.40;;;18.90;66.50;;;;;;5143173;27;19917;-55
2023/10/08 07:28:45;;;;;;;0.50;0.32;;;18.90;66.50;;;;;;5146284;27;20057;-55
2023/10/08 07:31:20;;;;;;;0.47;0.40;;;18.80;66.50;;;;;;5128299;27;20063;-55
2023/10/08 07:33:56;;;;;;;0.82;0.40;;;18.80;66.50;;;;;;5133328;27;20047;-54
2023/10/08 07:36:43;;;;;;;0.60;0.50;;;18.80;66.60;;;;;;5145963;27;20023;-55
2023/10/08 07:39:22;;;;;;;0.50;0.47;;;18.80;66.60;;;;;;5034562;28;20120;-56
2023/10/08 07:41:49;;;;;;;1.15;0.50;;;18.80;66.70;;;;;;5042375;28;20033;-55
2023/10/08 07:44:15;;;;;;;1.05;0.52;;;18.80;66.80;;;;;;5041712;28;20041;-57
2023/10/08 07:46:42;;;;;;;0.63;0.47;;;18.80;66.80;;;;;;5040940;28;20033;-62
2023/10/08 07:49:14;;;;;;;1.10;0.47;;;18.70;66.70;;;;;;5038988;28;20441;-54
2023/10/08 07:51:40;;;;;;;0.50;0.50;;;18.70;66.80;;;;;;5047507;28;20055;-56
2023/10/08 07:54:16;;;;;;;0.93;0.60;;;18.70;66.90;;;;;;5041594;28;20029;-54
2023/10/08 07:56:42;;;;;;;0.50;0.40;;;18.70;66.90;;;;;;5041649;28;20563;-56
2023/10/08 07:59:08;;;;;;;0.50;0.50;;;18.70;66.90;;;;;;5041672;28;20025;-55
2023/10/08 08:01:35;;;;;;;0.65;0.40;;;18.70;66.90;;;;;;5044219;28;20048;-55
2023/10/08 08:04:01;;;;;;;0.40;0.40;;;18.60;66.90;;;;;;5047372;28;20033;-55
2023/10/08 08:06:27;;;;;;;0.60;0.50;;;18.60;66.90;;;;;;5041604;28;20040;-56
2023/10/08 08:08:55;;;;;;;0.40;0.40;;;18.60;66.90;;;;;;5041420;28;20149;-58
2023/10/08 08:11:26;;;;;;;0.60;0.50;;;18.60;67.00;;;;;;5041661;28;20033;-55
2023/10/08 08:13:52;;;;;;;0.40;0.40;;;18.60;67.00;;;;;;5040997;28;20033;-57
2023/10/08 08:16:20;;;;;;;0.50;0.40;;;18.60;67.00;;;;;;5093303;27;20042;-58
2023/10/08 08:18:48;;;;;;;0.40;0.35;;;18.60;67.10;;;;;;5147588;27;20027;-57
2023/10/08 08:21:16;;;;;;;0.82;0.40;;;18.50;67.00;;;;;;5164143;27;20831;-57
2023/10/08 08:23:48;;;;;;;;;;;18.50;67.80;;;;;;5126598;27;20815;-56
2023/10/08 08:26:39;;;;;;;0.47;0.38;;;18.50;67.20;;;;;;5103370;28;19907;-57
2023/10/08 08:29:08;;;;;;;0.47;0.28;;;18.50;67.10;;;;;;5135070;27;20047;-54
2023/10/08 08:31:35;;;;;;;0.45;0.40;;;18.50;67.20;;;;;;5149103;27;20130;-55
2023/10/08 08:34:13;;;;;;;0.43;0.43;;;18.50;67.20;;;;;;5139242;27;20031;-55
2023/10/08 08:36:46;;;;;;;0.40;0.40;;;18.40;67.20;;;;;;5136193;27;20075;-54
2023/10/08 08:39:28;;;;;;;1.08;0.32;;;18.40;67.30;;;;;;5128011;27;20047;-54
2023/10/08 08:42:01;;;;;;;0.50;0.40;;;18.40;67.40;;;;;;5152279;27;20023;-54
2023/10/08 08:44:31;;;;;;;0.73;0.47;;;18.40;67.40;;;;;;5126074;27;20027;-53
2023/10/08 08:47:04;;;;;;;0.73;0.57;;;18.40;67.50;;;;;;5144834;27;20042;-54
2023/10/08 08:49:34;;;;;;;0.45;0.45;;;18.40;67.50;;;;;;5144689;27;20051;-55
2023/10/08 08:52:01;;;;;;;0.40;0.40;;;18.40;67.50;;;;;;5133024;27;20023;-55
2023/10/08 08:54:30;;;;;;;0.30;0.30;;;18.40;67.60;;;;;;5151540;27;20113;-55
2023/10/08 08:56:59;;;;;;;0.88;0.40;;;18.30;67.50;;;;;;5141979;27;20023;-53
2023/10/08 08:59:26;;;;;;;0.60;0.40;;;18.30;67.60;;;;;;5147744;27;20031;-55
2023/10/08 09:01:53;;;;;;;0.40;0.40;;;18.30;67.60;;;;;;5147751;27;20114;-56
2023/10/08 09:04:28;;;;;;;;;;;18.30;67.70;;;;;;5093574;28;20051;-56
2023/10/08 09:06:54;;;;;;;0.82;0.38;;;18.30;67.70;;;;;;5138184;27;19937;-54
2023/10/08 09:09:23;;;;;;;0.57;0.40;;;18.20;67.60;;;;;;5142159;27;20038;-56
2023/10/08 09:11:54;;;;;;;0.75;0.40;;;18.20;67.70;;;;;;5144685;27;20552;-57
2023/10/08 09:14:26;;;;;;;0.60;0.50;;;18.20;67.70;;;;;;5143800;27;20027;-55
2023/10/08 09:16:56;;;;;;;0.82;0.50;;;18.20;67.80;;;;;;5135413;27;20016;-54
2023/10/08 09:19:24;;;;;;;0.38;0.38;;;18.20;67.80;;;;;;5129334;27;20043;-54
2023/10/08 09:22:07;;;;;;;0.35;0.28;;;18.20;67.80;;;;;;5110836;27;20098;-54
2023/10/08 09:24:37;;;;;;;0.35;0.35;;;18.20;67.90;;;;;;5132192;27;20031;-57
2023/10/08 09:27:04;;;;;;;0.50;0.47;;;18.10;67.90;;;;;;5131404;27;20043;-57
2023/10/08 09:29:31;;;;;;;0.63;0.50;;;18.10;67.90;;;;;;5130364;27;20046;-55
2023/10/08 09:31:57;;;;;;;0.50;0.40;;;18.10;67.90;;;;;;5097990;28;20032;-54
2023/10/08 09:34:29;;;;;;;1.70;0.47;;;18.10;68.80;;;;;;5094086;27;20059;-53
2023/10/08 09:36:56;;;;;;;0.70;0.40;;;18.10;68.00;;;;;;5130301;27;20146;-54
2023/10/08 09:39:23;;;;;;;0.50;0.40;;;18.10;68.00;;;;;;5131484;27;20118;-51
2023/10/08 09:41:55;;;;;;;0.52;0.47;;;18.10;68.10;;;;;;5129688;27;20034;-54
2023/10/08 09:44:24;;;;;;;0.32;0.30;;;18.10;68.10;;;;;;5127645;27;20506;-54
2023/10/08 09:46:57;;;;;;;0.70;0.40;;;18.00;68.10;;;;;;5129501;27;20030;-53
2023/10/08 09:49:30;;;;;;;1.17;0.47;;;18.00;68.10;;;;;;5150160;27;20031;-52
2023/10/08 09:51:56;;;;;;;0.50;0.40;;;18.00;68.10;;;;;;5137973;27;20030;-53
2023/10/08 09:54:31;;;;;;;0.40;0.40;;;18.00;68.20;;;;;;5159273;27;20352;-53
2023/10/08 09:56:58;;;;;;;0.68;0.43;;;18.00;68.20;;;;;;5119812;27;20015;-53
2023/10/08 09:59:26;;;;;;;0.35;0.35;;;18.00;68.30;;;;;;5118212;28;20034;-55
2023/10/08 10:01:53;;;;;;;0.30;0.30;;;18.00;68.30;;;;;;5118958;27;20020;-52
2023/10/08 10:04:25;;;;;;;0.30;0.30;;;17.90;68.30;;;;;;5142759;27;20026;-55
2023/10/08 10:06:52;;;;;;;0.50;0.40;;;17.90;68.30;;;;;;5112604;28;20036;-53
2023/10/08 10:09:22;;;;;;;0.63;0.40;;;17.90;68.40;;;;;;5135073;27;20083;-53
2023/10/08 10:11:50;;;;;;;1.38;0.60;;;17.90;68.40;;;;;;5154007;27;20121;-54
2023/10/08 10:14:17;;;;;;;0.93;0.43;;;17.90;68.40;;;;;;5146945;27;20053;-57
2023/10/08 10:16:48;;;;;;;0.45;0.40;;;17.90;68.40;;;;;;5142580;27;20035;-54
2023/10/08 10:19:20;;;;;;;0.47;0.30;;;17.90;68.40;;;;;;5127609;27;20561;-53
2023/10/08 10:21:50;;;;;;;0.70;0.50;;;17.80;68.40;;;;;;5129839;27;20035;-54
2023/10/08 10:24:28;;;;;;;0.45;0.43;;;17.80;68.40;;;;;;5131595;27;20023;-54
2023/10/08 10:27:25;;;;;;;0.70;0.50;;;17.80;68.50;;;;;;5133853;27;20045;-53
2023/10/08 10:29:52;;;;;;;0.30;0.30;;;17.80;68.60;;;;;;5111746;28;20046;-55
2023/10/08 10:32:18;;;;;;;0.40;0.30;;;17.80;68.50;;;;;;5128100;27;20032;-57
2023/10/08 10:34:47;;;;;;;1.83;0.45;;;17.80;68.60;;;;;;5132776;27;20026;-53
2023/10/08 10:37:19;;;;;;;0.88;0.40;;;17.70;68.50;;;;;;5112132;28;20042;-54
2023/10/08 10:40:00;;;;;;;0.70;0.40;;;17.70;68.50;;;;;;5126650;27;20097;-52
2023/10/08 10:42:29;;;;;;;0.55;0.35;;;17.70;68.60;;;;;;5134679;27;20395;-54
2023/10/08 10:44:58;;;;;;;0.85;0.32;;;17.70;68.60;;;;;;5134497;27;20031;-52
2023/10/08 10:47:27;;;;;;;0.52;0.50;;;17.70;68.60;;;;;;5140316;27;20027;-55
2023/10/08 10:53:09;;;;;;;0.82;0.50;;;17.70;68.70;;;;;;5139706;27;20033;-52
2023/10/08 10:55:31;;;;;;;0.50;0.45;;;17.60;68.70;;;;;;5146674;27;20038;-55
2023/10/08 10:58:14;;;;;;;1.05;0.40;;;17.60;68.70;;;;;;5144207;27;20058;-56
2023/10/08 11:03:23;;;;;;;0.50;0.45;;;17.60;68.80;;;;;;5139596;27;20046;-55
2023/10/08 11:06:05;;;;;;;0.65;0.40;;;17.60;68.80;;;;;;5142437;27;20058;-54
2023/10/08 11:08:35;;;;;;;0.40;0.38;;;17.60;68.80;;;;;;5126800;27;20035;-57
2023/10/08 11:11:05;;;;;;;0.50;0.40;;;17.60;68.90;;;;;;5146933;27;20031;-55
2023/10/08 11:13:42;;;;;;;0.40;0.40;;;17.60;68.90;;;;;;5144097;27;20049;-54
2023/10/08 11:16:13;;;;;;;0.50;0.40;;;17.50;68.80;;;;;;5153162;27;20031;-55
2023/10/08 11:18:50;;;;;;;0.50;0.40;;;17.50;68.90;;;;;;5139075;27;20043;-55
2023/10/08 11:21:18;;;;;;;0.30;0.30;;;17.50;68.80;;;;;;5137058;27;20027;-54
2023/10/08 11:23:46;;;;;;;;;;;17.50;69.00;;;;;;5118441;27;20035;-55
2023/10/08 11:26:15;;;;;;;0.40;0.40;;;17.50;69.00;;;;;;5112485;27;19933;-54
2023/10/08 11:28:47;;;;;;;0.50;0.40;;;17.50;69.00;;;;;;5138032;27;20038;-55
2023/10/08 11:31:20;;;;;;;0.40;0.35;;;17.40;68.90;;;;;;5101873;27;20027;-54
2023/10/08 11:33:55;;;;;;;1.27;0.40;;;17.40;69.00;;;;;;5112556;27;20015;-54
2023/10/08 11:36:27;;;;;;;0.50;0.30;;;17.40;69.00;;;;;;5130554;27;20038;-55
2023/10/08 11:39:07;;;;;;;0.50;0.40;;;17.40;69.00;;;;;;5131933;27;20058;-56
2023/10/08 11:41:49;;;;;;;0.50;0.40;;;17.40;69.10;;;;;;5133280;27;20035;-53
2023/10/08 11:44:19;;;;;;;0.60;0.38;;;17.40;69.10;;;;;;5134128;27;20130;-54
2023/10/08 11:46:51;;;;;;;0.82;0.30;;;17.30;69.10;;;;;;5136103;27;20020;-53
2023/10/08 11:49:18;;;;;;;1.50;0.40;;;17.30;69.10;;;;;;5147901;27;20098;-57
2023/10/08 11:51:48;;;;;;;0.40;0.40;;;17.30;69.10;;;;;;5128140;27;20026;-54
2023/10/08 11:54:14;;;;;;;0.40;0.40;;;17.30;69.20;;;;;;5159191;27;20054;-53
2023/10/08 11:56:41;;;;;;;0.20;0.20;;;17.30;69.20;;;;;;5128665;27;20030;-55
2023/10/08 11:59:11;;;;;;;0.37;0.37;;;17.30;69.20;;;;;;5126384;27;20084;-55
2023/10/08 12:01:41;;;;;;;0.40;0.40;;;17.30;69.20;;;;;;5137879;27;20281;-57
2023/10/08 12:04:12;;;;;;;0.50;0.40;;;17.30;69.20;;;;;;5135133;27;20057;-53
2023/10/08 12:06:47;;;;;;;0.40;0.40;;;17.20;69.20;;;;;;5145784;27;20050;-54
2023/10/08 12:09:15;;;;;;;0.50;0.50;;;17.20;69.20;;;;;;5148661;27;20035;-53
2023/10/08 12:11:42;;;;;;;1.25;0.50;;;17.20;69.20;;;;;;5153872;27;20062;-54
2023/10/08 12:14:10;;;;;;;0.63;0.50;;;17.20;69.20;;;;;;5158803;27;20038;-54
2023/10/08 12:16:36;;;;;;;0.55;0.43;;;17.20;69.40;;;;;;5145106;27;20057;-55
2023/10/08 12:19:15;;;;;;;0.40;0.38;;;17.20;69.30;;;;;;5149199;27;20477;-54
2023/10/08 12:21:41;;;;;;;1.05;0.60;;;17.20;69.40;;;;;;5154471;27;20094;-53
2023/10/08 12:24:12;;;;;;;0.50;0.40;;;17.10;69.20;;;;;;5148748;27;20035;-54
2023/10/08 12:26:45;;;;;;;0.40;0.40;;;17.10;69.30;;;;;;5153585;27;20367;-54
2023/10/08 12:29:16;;;;;;;0.68;0.55;;;17.10;69.30;;;;;;5140498;27;20067;-54
2023/10/08 12:31:47;;;;;;;0.60;0.43;;;17.10;69.40;;;;;;5153023;27;21889;-53
2023/10/08 12:34:17;;;;;;;0.50;0.40;;;17.10;69.40;;;;;;5154983;27;20018;-54
2023/10/08 12:36:43;;;;;;;0.50;0.40;;;17.10;69.40;;;;;;5159626;27;20038;-54
2023/10/08 12:39:14;;;;;;;0.63;0.50;;;17.00;69.40;;;;;;5143300;27;20046;-52
2023/10/08 12:41:43;;;;;;;0.40;0.30;;;17.00;69.40;;;;;;5135109;27;20031;-50
2023/10/08 12:44:10;;;;;;;0.85;0.55;;;17.00;69.40;;;;;;5156306;27;20037;-53
2023/10/08 12:46:36;;;;;;;0.50;0.47;;;17.00;69.40;;;;;;5154203;27;20034;-54
2023/10/08 12:49:02;;;;;;;0.40;0.30;;;17.00;69.50;;;;;;5127253;27;20100;-54
2023/10/08 12:51:32;;;;;;;0.50;0.50;;;16.90;69.50;;;;;;5138682;27;20092;-54
2023/10/08 12:54:03;;;;;;;0.40;0.40;;;17.00;69.50;;;;;;5138483;27;20023;-53
2023/10/08 12:56:35;;;;;;;0.40;0.30;;;17.00;70.30;;;;;;5143665;27;20045;-51
2023/10/08 12:59:05;;;;;;;0.57;0.40;;;16.90;69.60;;;;;;5137876;27;20019;-54
2023/10/08 13:01:32;;;;;;;0.47;0.47;;;16.90;69.60;;;;;;5142165;27;20035;-52
2023/10/08 13:04:06;;;;;;;0.30;0.30;;;16.90;69.60;;;;;;5142998;27;20024;-51
2023/10/08 13:06:36;;;;;;;0.70;0.50;;;16.90;69.60;;;;;;5133865;27;20043;-54
2023/10/08 13:09:09;;;;;;;0.43;0.30;;;16.90;69.60;;;;;;5141281;27;20033;-53
2023/10/08 13:11:35;;;;;;;0.60;0.40;;;16.90;69.60;;;;;;5140139;27;20035;-55
2023/10/08 13:14:04;;;;;;;0.75;0.35;;;16.90;69.60;;;;;;5148316;27;20023;-55
2023/10/08 13:16:31;;;;;;;0.70;0.60;;;16.90;69.70;;;;;;5139644;27;20023;-54
2023/10/08 13:18:58;;;;;;;0.40;0.40;;;16.80;69.60;;;;;;5129154;27;20032;-54
2023/10/08 13:21:28;;;;;;;0.55;0.40;;;16.80;70.30;;;;;;5140143;27;20042;-54
2023/10/08 13:24:00;;;;;;;0.35;0.35;;;16.80;69.60;;;;;;5139689;27;20111;-54
2023/10/08 13:26:30;;;;;;;0.30;0.30;;;16.80;69.70;;;;;;5140230;27;20039;-54
2023/10/08 13:29:00;;;;;;;0.70;0.60;;;16.80;69.70;;;;;;5138974;27;20042;-54
2023/10/08 13:31:29;;;;;;;0.43;0.43;;;16.80;69.70;;;;;;5144965;27;20051;-54
2023/10/08 13:34:02;;;;;;;0.63;0.40;;;16.80;69.80;;;;;;5135016;27;20023;-54
2023/10/08 13:36:28;;;;;;;0.60;0.50;;;16.80;69.90;;;;;;5134723;27;20533;-54
2023/10/08 13:38:55;;;;;;;0.32;0.32;;;16.80;69.80;;;;;;5143195;27;20103;-54
2023/10/08 13:41:22;;;;;;;1.10;0.50;;;16.70;69.70;;;;;;5147496;27;20076;-54
2023/10/08 13:43:51;;;;;;;0.38;0.38;;;16.70;69.70;;;;;;5141886;27;20023;-54
2023/10/08 13:46:18;;;;;;;0.40;0.40;;;16.70;69.80;;;;;;5113886;28;20026;-54
2023/10/08 13:48:49;;;;;;;0.95;0.60;;;16.70;69.80;;;;;;5146321;27;20023;-53
2023/10/08 13:51:25;;;;;;;0.68;0.40;;;16.70;69.80;;;;;;5151780;27;20026;-53
2023/10/08 13:53:53;;;;;;;0.50;0.50;;;16.70;69.90;;;;;;5159250;27;20049;-52
2023/10/08 13:56:30;;;;;;;0.38;0.38;;;16.70;69.90;;;;;;5140122;27;20054;-55
2023/10/08 13:59:31;;;;;;;0.40;0.40;;;16.70;69.90;;;;;;5149309;27;20462;-54
2023/10/08 14:01:54;;;;;;;0.40;0.40;;;16.70;69.90;;;;;;5132836;27;20073;-55
2023/10/08 14:04:26;;;;;;;0.50;0.40;;;16.70;69.80;;;;;;5152064;27;20023;-53
2023/10/08 14:06:52;;;;;;;1.02;0.32;;;16.70;69.90;;;;;;5142964;27;20432;-54
2023/10/08 14:09:30;;;;;;;0.85;0.50;;;16.70;69.90;;;;;;5124791;28;20043;-52
2023/10/08 14:11:57;;;;;;;0.47;0.40;;;16.70;69.80;;;;;;5132175;27;20038;-55
2023/10/08 14:14:29;;;;;;;1.70;0.40;;;16.70;69.80;;;;;;5146593;27;20041;-53